Time;durP1;ratioP1;P1;durP2;ratioP2;P2;SDS_P1;SDS_P2;PMS_P1;PMS_P2;Temp;Humidity;BMP_temperature;BMP_pressure;BME280_temperature;BME280_humidity;BME280_pressure;Samples;Min_cycle;Max_cycle;Signal;HPM_P1;HPM_P2
2020/12/27 00:00:31;;;;;;;57.83;27.95;;;;;;;-4.66;100.00;99431.97;2032198;29;20251;-71
2020/12/27 00:01:31;;;;;;;54.53;27.85;;;;;;;-4.68;100.00;99435.78;2032533;29;20227;-71
2020/12/27 00:02:33;;;;;;;56.97;27.63;;;;;;;-4.61;100.00;99421.00;2032376;29;20243;-71
2020/12/27 00:03:33;;;;;;;54.63;27.02;;;;;;;-4.56;100.00;99435.06;2040416;29;20802;-71
2020/12/27 00:04:35;;;;;;;57.87;28.00;;;;;;;-4.67;100.00;99412.16;2033073;29;20659;-74
2020/12/27 00:05:35;;;;;;;57.40;28.65;;;;;;;-4.55;100.00;99422.84;2033287;29;20671;-71
2020/12/27 00:06:36;;;;;;;60.67;29.03;;;;;;;-4.59;100.00;99425.03;2032648;29;20634;-71
2020/12/27 00:07:37;;;;;;;60.60;29.08;;;;;;;-4.64;100.00;99414.38;2032226;29;20227;-72
2020/12/27 00:08:38;;;;;;;56.10;28.23;;;;;;;-4.54;100.00;99419.25;2032427;29;20754;-72
2020/12/27 00:09:40;;;;;;;61.08;29.10;;;;;;;-4.49;100.00;99405.69;2032619;29;20227;-72
2020/12/27 00:10:41;;;;;;;61.42;29.90;;;;;;;-4.44;100.00;99400.69;2033091;29;20231;-71
2020/12/27 00:11:42;;;;;;;59.20;29.48;;;;;;;-4.27;100.00;99412.41;2033061;29;20231;-70
2020/12/27 00:12:44;;;;;;;61.90;29.50;;;;;;;-4.32;100.00;99418.22;2033243;29;20355;-71
2020/12/27 00:13:44;;;;;;;55.65;28.00;;;;;;;-4.29;100.00;99410.00;2033167;29;20602;-71
2020/12/27 00:14:46;;;;;;;56.43;27.43;;;;;;;-4.32;100.00;99417.41;2032483;29;20228;-71
2020/12/27 00:15:46;;;;;;;58.85;28.00;;;;;;;-4.35;100.00;99417.78;2032584;29;20222;-71
2020/12/27 00:16:47;;;;;;;62.23;28.20;;;;;;;-4.38;100.00;99424.16;2033158;29;20238;-72
2020/12/27 00:17:48;;;;;;;55.58;27.95;;;;;;;-4.41;100.00;99415.94;2033288;29;20219;-72
2020/12/27 00:18:49;;;;;;;54.27;26.97;;;;;;;-4.44;100.00;99416.31;2032382;29;20314;-72
2020/12/27 00:19:50;;;;;;;52.17;26.80;;;;;;;-4.42;100.00;99409.94;2032309;29;20223;-70
2020/12/27 00:20:51;;;;;;;55.20;27.57;;;;;;;-4.37;100.00;99417.97;2032440;29;20332;-70
2020/12/27 00:21:52;;;;;;;52.97;28.02;;;;;;;-4.36;100.00;99408.34;2032258;29;20656;-71
2020/12/27 00:22:53;;;;;;;56.13;28.80;;;;;;;-4.35;100.00;99404.75;2032605;29;20227;-70
2020/12/27 00:23:54;;;;;;;59.50;28.45;;;;;;;-4.35;100.00;99402.16;2032183;29;20223;-71
2020/12/27 00:24:55;;;;;;;56.23;28.13;;;;;;;-4.33;100.00;99397.56;2032588;29;20269;-71
2020/12/27 00:25:56;;;;;;;54.65;27.13;;;;;;;-4.40;100.00;99399.31;2032400;29;20235;-71
2020/12/27 00:26:57;;;;;;;52.77;28.33;;;;;;;-4.47;100.00;99388.06;2033267;29;20286;-71
2020/12/27 00:27:58;;;;;;;61.00;28.48;;;;;;;-4.44;100.00;99396.28;2033238;29;20283;-71
2020/12/27 00:29:00;;;;;;;56.15;28.20;;;;;;;-4.35;100.00;99399.53;2033174;29;20243;-71
2020/12/27 00:30:00;;;;;;;58.60;27.95;;;;;;;-4.40;100.00;99388.91;2033116;29;20220;-72
2020/12/27 00:31:01;;;;;;;58.50;28.47;;;;;;;-4.36;100.00;99397.94;2031998;29;20246;-71
2020/12/27 00:32:02;;;;;;;59.03;25.85;;;;;;;-4.36;100.00;99387.50;2024517;29;20224;-72
2020/12/27 00:33:03;;;;;;;58.23;27.13;;;;;;;-4.42;100.00;99372.69;2032403;29;20306;-71
2020/12/27 00:34:04;;;;;;;55.13;27.85;;;;;;;-4.42;100.00;99383.09;2033146;29;20274;-71
2020/12/27 00:35:05;;;;;;;54.87;27.33;;;;;;;-4.43;100.00;99386.66;2032998;29;20306;-71
2020/12/27 00:36:06;;;;;;;53.38;28.15;;;;;;;-4.46;100.00;99385.25;2033272;29;20706;-71
2020/12/27 00:37:07;;;;;;;56.67;28.87;;;;;;;-4.51;100.00;99389.44;2031878;29;20732;-72
2020/12/27 00:38:08;;;;;;;60.15;27.75;;;;;;;-4.68;100.00;99381.13;2032312;29;20238;-72
2020/12/27 00:39:09;;;;;;;53.10;27.43;;;;;;;-4.66;100.00;99390.34;2032204;29;20310;-71
2020/12/27 00:40:11;;;;;;;51.70;27.92;;;;;;;-4.69;100.00;99388.13;2032285;29;20231;-71
2020/12/27 00:41:11;;;;;;;55.90;28.48;;;;;;;-4.72;100.00;99387.69;2033127;29;20600;-71
2020/12/27 00:42:12;;;;;;;53.13;28.07;;;;;;;-4.73;100.00;99394.69;2033071;29;20235;-71
2020/12/27 00:43:14;;;;;;;56.20;27.95;;;;;;;-4.78;100.00;99393.63;2033149;29;20227;-70
2020/12/27 00:44:16;;;;;;;52.67;27.20;;;;;;;-4.83;100.00;99386.41;2033147;29;20259;-73
2020/12/27 00:45:16;;;;;;;55.45;27.23;;;;;;;-4.92;100.00;99372.72;2032109;29;20310;-71
2020/12/27 00:46:18;;;;;;;58.63;27.40;;;;;;;-4.80;100.00;99391.22;2032329;29;20232;-71
2020/12/27 00:47:19;;;;;;;56.42;28.20;;;;;;;-4.87;100.00;99390.34;2032554;29;20318;-70
2020/12/27 00:48:20;;;;;;;53.40;26.33;;;;;;;-4.89;100.00;99390.56;2032328;29;20318;-73
2020/12/27 00:49:21;;;;;;;58.72;27.63;;;;;;;-4.87;100.00;99382.56;2032208;29;20232;-72
2020/12/27 00:50:22;;;;;;;53.13;26.52;;;;;;;-4.91;100.00;99379.53;2024012;29;20231;-71
2020/12/27 00:51:24;;;;;;;53.85;27.27;;;;;;;-4.91;100.00;99378.72;2024243;29;20685;-70
2020/12/27 00:52:25;;;;;;;57.65;27.48;;;;;;;-4.97;100.00;99376.88;2024742;29;20259;-70
2020/12/27 00:53:26;;;;;;;52.28;27.60;;;;;;;-5.01;100.00;99368.66;2032092;29;20231;-71
2020/12/27 00:54:27;;;;;;;58.43;28.83;;;;;;;-4.94;100.00;99368.72;2032095;29;20321;-71
2020/12/27 00:55:28;;;;;;;54.63;28.27;;;;;;;-5.03;100.00;99368.03;2032223;29;20223;-71
2020/12/27 00:56:30;;;;;;;60.23;28.63;;;;;;;-4.96;100.00;99378.47;2032153;29;20225;-71
2020/12/27 00:57:45;;;;;;;56.33;27.40;;;;;;;-5.01;100.00;99367.84;2031725;29;20223;-71
2020/12/27 00:58:50;;;;;;;57.28;26.90;;;;;;;-4.93;100.00;99383.31;2032007;29;20340;-72
2020/12/27 00:59:51;;;;;;;54.03;25.98;;;;;;;-4.94;100.00;99379.13;2032248;29;20363;-71
2020/12/27 01:00:57;;;;;;;53.95;27.35;;;;;;;-4.97;100.00;99379.47;2031748;29;20235;-71
2020/12/27 01:01:58;;;;;;;51.00;26.50;;;;;;;-5.00;100.00;99369.44;2032103;29;20223;-71
2020/12/27 01:03:18;;;;;;;47.00;26.30;;;;;;;-5.00;100.00;99369.44;2032217;29;20223;-71
2020/12/27 01:04:49;;;;;;;52.95;26.63;;;;;;;-5.02;100.00;99371.44;2031721;29;20310;-71
2020/12/27 01:05:54;;;;;;;60.17;27.75;;;;;;;-5.02;100.00;99368.84;2031650;29;20679;-72
2020/12/27 01:06:56;;;;;;;56.33;27.47;;;;;;;-5.03;100.00;99369.84;2031960;29;20617;-71
2020/12/27 01:07:57;;;;;;;53.03;26.70;;;;;;;-5.01;100.00;99368.66;2032036;29;20243;-73
2020/12/27 01:08:58;;;;;;;55.83;27.40;;;;;;;-4.94;100.00;99358.31;2032141;29;20228;-72
2020/12/27 01:10:00;;;;;;;50.35;24.48;;;;;;;-4.90;100.00;99362.13;2032180;29;20224;-71
2020/12/27 01:11:02;;;;;;;54.95;25.73;;;;;;;-4.88;100.00;99354.94;2032194;29;20638;-71
2020/12/27 01:12:03;;;;;;;56.10;26.58;;;;;;;-4.87;100.00;99351.31;2032069;29;20231;-71
2020/12/27 01:13:05;;;;;;;52.95;26.75;;;;;;;-4.84;100.00;99348.38;2024332;29;20299;-73
2020/12/27 01:14:07;;;;;;;53.92;26.92;;;;;;;-4.84;100.00;99346.56;2031540;29;20447;-71
2020/12/27 01:15:09;;;;;;;51.20;25.90;;;;;;;-4.91;100.00;99343.09;2024300;29;20227;-71
2020/12/27 01:16:49;;;;;;;53.80;27.23;;;;;;;-4.98;100.00;99352.66;2032194;29;20235;-72
2020/12/27 01:17:51;;;;;;;50.13;26.25;;;;;;;-5.00;100.00;99348.63;2031585;29;20330;-74
2020/12/27 01:18:53;;;;;;;46.33;25.63;;;;;;;-5.05;100.00;99345.78;2024545;29;20239;-70
2020/12/27 01:20:00;;;;;;;50.35;26.20;;;;;;;-5.00;100.00;99339.03;2032108;29;20228;-71
2020/12/27 01:21:01;;;;;;;56.03;26.47;;;;;;;-4.90;100.00;99343.91;2024605;29;20676;-71
2020/12/27 01:22:02;;;;;;;46.58;24.48;;;;;;;-4.92;100.00;99340.69;2024103;29;20220;-72
2020/12/27 01:23:35;;;;;;;54.65;25.85;;;;;;;-4.92;100.00;99341.50;2031885;29;20701;-71
2020/12/27 01:24:37;;;;;;;52.00;25.92;;;;;;;-4.97;100.00;99335.25;2031686;29;20374;-71
2020/12/27 01:25:39;;;;;;;50.40;25.40;;;;;;;-4.88;100.00;99327.09;2031811;29;20231;-72
2020/12/27 01:26:40;;;;;;;43.03;23.35;;;;;;;-4.72;100.00;99328.63;2032065;29;20287;-71
2020/12/27 01:27:41;;;;;;;48.07;23.17;;;;;;;-4.68;100.00;99318.66;2024074;29;20232;-72
2020/12/27 01:28:42;;;;;;;48.65;24.88;;;;;;;-4.57;100.00;99323.31;2024127;29;20714;-71
2020/12/27 01:29:44;;;;;;;47.05;23.65;;;;;;;-4.56;100.00;99327.53;2031933;29;20306;-72
2020/12/27 01:30:58;;;;;;;43.65;24.15;;;;;;;-4.45;100.00;99318.38;2031614;29;20227;-72
2020/12/27 01:32:08;;;;;;;38.20;22.73;;;;;;;-4.48;100.00;99318.75;2024784;29;20248;-71
2020/12/27 01:33:19;;;;;;;44.58;22.75;;;;;;;-4.47;100.00;99322.97;2031825;29;20241;-71
2020/12/27 01:34:32;;;;;;;50.13;24.48;;;;;;;-4.55;100.00;99322.13;2025397;29;20231;-71
2020/12/27 01:35:33;;;;;;;45.92;23.98;;;;;;;-4.64;100.00;99320.66;2031867;29;20227;-71
2020/12/27 01:36:35;;;;;;;48.33;24.47;;;;;;;-4.67;100.00;99318.47;2031918;29;20219;-71
2020/12/27 01:37:41;;;;;;;45.22;23.38;;;;;;;-4.77;100.00;99312.00;2031504;29;20231;-71
2020/12/27 01:38:42;;;;;;;47.80;23.65;;;;;;;-4.76;100.00;99308.38;2024219;29;20232;-70
2020/12/27 01:39:43;;;;;;;42.38;23.33;;;;;;;-4.73;100.00;99321.00;2024152;29;20283;-71
2020/12/27 01:40:44;;;;;;;45.80;23.57;;;;;;;-4.77;100.00;99309.38;2032234;29;20323;-70
2020/12/27 01:41:47;;;;;;;43.38;23.92;;;;;;;-4.83;100.00;99318.75;2031884;29;20223;-70
2020/12/27 01:42:56;;;;;;;45.40;23.10;;;;;;;-4.84;100.00;99317.94;2023852;29;20244;-70
2020/12/27 01:44:02;;;;;;;45.67;24.75;;;;;;;-4.89;100.00;99311.69;2024031;29;20239;-71
2020/12/27 01:45:05;;;;;;;41.20;23.13;;;;;;;-4.92;100.00;99312.06;2024535;29;20235;-71
2020/12/27 01:46:33;;;;;;;41.10;22.95;;;;;;;-4.97;100.00;99311.84;2031401;29;20233;-71
2020/12/27 01:47:38;;;;;;;46.67;23.38;;;;;;;-4.99;100.00;99303.41;2031559;29;20228;-70
2020/12/27 01:48:39;;;;;;;42.30;22.65;;;;;;;-5.00;100.00;99300.00;2032004;29;20238;-70
2020/12/27 01:49:46;;;;;;;44.85;22.65;;;;;;;-5.01;100.00;99305.41;2024820;29;20228;-70
2020/12/27 01:50:47;;;;;;;45.35;23.50;;;;;;;-5.02;100.00;99302.00;2031769;29;20230;-72
2020/12/27 01:52:04;;;;;;;45.67;22.77;;;;;;;-5.14;100.00;99288.69;2031225;29;20310;-70
2020/12/27 01:53:23;;;;;;;42.33;22.83;;;;;;;-5.08;100.00;99301.94;2031484;29;20231;-71
2020/12/27 01:54:24;;;;;;;47.20;22.80;;;;;;;-5.06;100.00;99303.38;2032512;29;20231;-71
2020/12/27 01:55:51;;;;;;;48.50;24.30;;;;;;;-5.13;100.00;99299.91;2032847;29;20239;-71
2020/12/27 01:56:54;;;;;;;42.80;22.13;;;;;;;-5.15;100.00;99302.69;2031241;29;20319;-72
2020/12/27 01:58:14;;;;;;;47.70;22.58;;;;;;;-5.18;100.00;99294.47;2024632;29;20234;-71
2020/12/27 01:59:18;;;;;;;42.55;22.08;;;;;;;-5.20;100.00;99286.06;2025855;29;20247;-71
2020/12/27 02:00:23;;;;;;;42.15;22.52;;;;;;;-5.20;100.00;99291.28;2024267;29;20236;-71
2020/12/27 02:01:48;;;;;;;45.72;24.38;;;;;;;-5.24;100.00;99288.22;2031806;29;20287;-71
2020/12/27 02:03:07;;;;;;;42.90;22.73;;;;;;;-5.25;100.00;99283.22;2032006;29;20227;-72
2020/12/27 02:04:11;;;;;;;41.70;22.80;;;;;;;-5.26;100.00;99282.41;2031689;29;20639;-72
2020/12/27 02:05:15;;;;;;;45.25;22.40;;;;;;;-5.28;100.00;99287.00;2031592;29;20338;-71
2020/12/27 02:06:19;;;;;;;42.50;21.75;;;;;;;-5.28;100.00;99279.19;2031852;29;20227;-71
2020/12/27 02:07:27;;;;;;;43.22;22.85;;;;;;;-5.33;100.00;99271.16;2031253;29;20234;-72
2020/12/27 02:08:37;;;;;;;44.13;22.08;;;;;;;-5.30;100.00;99283.78;2031733;29;20246;-72
2020/12/27 02:09:57;;;;;;;43.33;22.92;;;;;;;-5.30;100.00;99283.78;2026023;29;20318;-71
2020/12/27 02:10:58;;;;;;;45.03;23.80;;;;;;;-5.31;100.00;99278.75;2024070;29;20604;-72
2020/12/27 02:12:05;;;;;;;47.33;22.23;;;;;;;-5.28;100.00;99287.00;2031702;29;20279;-71
2020/12/27 02:13:10;;;;;;;42.90;21.70;;;;;;;-5.30;100.00;99283.78;2024496;29;20267;-70
2020/12/27 02:14:11;;;;;;;44.97;22.73;;;;;;;-5.29;100.00;99285.41;2031500;29;20223;-70
2020/12/27 02:15:14;;;;;;;40.90;23.25;;;;;;;-5.29;100.00;99285.41;2024080;29;20269;-70
2020/12/27 02:16:34;;;;;;;44.42;22.88;;;;;;;-5.28;100.00;99279.19;2031727;29;20234;-71
2020/12/27 02:18:14;;;;;;;43.40;22.70;;;;;;;-5.35;100.00;99270.53;2031426;29;20238;-72
2020/12/27 02:19:15;;;;;;;43.22;23.17;;;;;;;-5.28;100.00;99275.81;2031671;29;20263;-71
2020/12/27 02:20:21;;;;;;;40.53;21.70;;;;;;;-5.29;100.00;99271.59;2031666;29;20709;-71
2020/12/27 02:21:31;;;;;;;41.88;22.77;;;;;;;-5.34;100.00;99259.16;2024972;29;20244;-72
2020/12/27 02:22:33;;;;;;;42.67;23.13;;;;;;;-5.35;100.00;99260.16;2023853;29;20220;-72
2020/12/27 02:23:55;;;;;;;42.85;21.77;;;;;;;-5.31;100.00;99270.97;2031324;29;20314;-70
2020/12/27 02:24:57;;;;;;;41.53;22.30;;;;;;;-5.29;100.00;99274.19;2031436;29;20738;-70
2020/12/27 02:26:00;;;;;;;44.88;21.63;;;;;;;-5.31;100.00;99273.56;2023792;29;20569;-71
2020/12/27 02:27:14;;;;;;;39.90;21.77;;;;;;;-5.39;100.00;99261.50;2025257;29;20319;-71
2020/12/27 02:28:15;;;;;;;44.90;22.60;;;;;;;-5.35;100.00;99270.53;2023859;29;20719;-69
2020/12/27 02:29:17;;;;;;;42.08;22.25;;;;;;;-5.36;100.00;99260.34;2031571;29;20227;-70
2020/12/27 02:30:18;;;;;;;47.67;24.53;;;;;;;-5.35;100.00;99274.94;2031554;29;20238;-71
2020/12/27 02:31:21;;;;;;;42.00;22.90;;;;;;;-5.38;100.00;99272.72;2031458;29;20279;-70
2020/12/27 02:32:32;;;;;;;43.85;22.42;;;;;;;-5.44;100.00;99267.28;2024887;29;20232;-70
2020/12/27 02:33:33;;;;;;;44.05;23.80;;;;;;;-5.39;100.00;99279.69;2023703;29;20339;-70
2020/12/27 02:34:34;;;;;;;43.30;23.50;;;;;;;-5.40;100.00;99276.28;2023721;29;20745;-70
2020/12/27 02:35:35;;;;;;;44.08;23.23;;;;;;;-5.42;100.00;99272.28;2023688;29;20275;-70
2020/12/27 02:36:38;;;;;;;38.45;21.55;;;;;;;-5.41;100.00;99272.09;2023671;29;20228;-71
2020/12/27 02:37:40;;;;;;;43.38;23.48;;;;;;;-5.42;100.00;99269.69;2031694;29;20706;-70
2020/12/27 02:38:48;;;;;;;45.50;21.55;;;;;;;-5.44;100.00;99266.47;2031522;29;20663;-71
2020/12/27 02:39:54;;;;;;;47.63;23.52;;;;;;;-5.56;100.00;99241.97;2031111;29;20266;-72
2020/12/27 02:40:57;;;;;;;41.15;22.67;;;;;;;-5.51;100.00;99253.41;2031491;29;20282;-72
2020/12/27 02:42:09;;;;;;;45.63;22.55;;;;;;;-5.47;100.00;99254.66;2031201;29;20529;-71
2020/12/27 02:43:13;;;;;;;48.47;23.37;;;;;;;-5.47;100.00;99259.84;2023804;29;20228;-72
2020/12/27 02:44:15;;;;;;;44.88;23.10;;;;;;;-5.47;100.00;99248.66;2024219;29;20225;-71
2020/12/27 02:45:47;;;;;;;42.70;22.55;;;;;;;-5.47;100.00;99248.66;2031041;29;20235;-71
2020/12/27 02:47:06;;;;;;;43.42;22.13;;;;;;;-5.51;100.00;99240.41;2031958;29;20662;-73
2020/12/27 02:48:26;;;;;;;44.95;23.67;;;;;;;-5.50;100.00;99234.22;2031884;29;20219;-71
2020/12/27 02:49:31;;;;;;;41.00;22.67;;;;;;;-5.49;100.00;99235.03;2031387;29;20286;-71
2020/12/27 02:50:38;;;;;;;44.75;23.23;;;;;;;-5.55;100.00;99228.81;2031019;29;20310;-71
2020/12/27 02:51:39;;;;;;;44.70;23.17;;;;;;;-5.48;100.00;99241.81;2031576;29;20227;-72
2020/12/27 02:52:41;;;;;;;38.95;23.45;;;;;;;-5.46;100.00;99234.66;2031552;29;20281;-70
2020/12/27 02:53:48;;;;;;;41.67;23.48;;;;;;;-5.47;100.00;99222.66;2024037;29;20243;-71
2020/12/27 02:54:49;;;;;;;43.85;21.98;;;;;;;-5.46;100.00;99227.66;2025884;29;20228;-71
2020/12/27 02:55:54;;;;;;;39.22;22.63;;;;;;;-5.42;100.00;99218.50;2032774;29;20227;-71
2020/12/27 02:56:55;;;;;;;49.42;24.17;;;;;;;-5.44;100.00;99222.28;2033174;29;20246;-71
2020/12/27 02:57:56;;;;;;;46.35;23.58;;;;;;;-5.46;100.00;99219.06;2033119;29;20261;-72
2020/12/27 02:59:00;;;;;;;41.35;23.38;;;;;;;-5.50;100.00;99210.03;2033090;29;20294;-70
2020/12/27 03:00:01;;;;;;;43.55;23.85;;;;;;;-5.49;100.00;99209.03;2025518;29;20220;-70
2020/12/27 03:01:21;;;;;;;50.67;22.58;;;;;;;-5.51;100.00;99209.22;2033101;29;20226;-72
2020/12/27 03:02:41;;;;;;;42.75;23.00;;;;;;;-5.57;100.00;99207.38;2033010;29;20241;-71
2020/12/27 03:03:50;;;;;;;46.33;24.50;;;;;;;-5.57;100.00;99207.38;2033265;29;20290;-71
2020/12/27 03:04:58;;;;;;;41.60;23.23;;;;;;;-5.57;100.00;99204.78;2025706;29;20228;-71
2020/12/27 03:05:59;;;;;;;44.87;23.93;;;;;;;-5.58;100.00;99199.75;2025318;29;20247;-71
2020/12/27 03:07:00;;;;;;;42.15;23.23;;;;;;;-5.61;100.00;99195.75;2025090;29;20304;-70
2020/12/27 03:08:22;;;;;;;44.47;23.67;;;;;;;-5.68;100.00;99189.69;2032844;29;20223;-71
2020/12/27 03:09:43;;;;;;;38.15;22.08;;;;;;;-5.65;100.00;99193.72;2047760;29;20238;-70
2020/12/27 03:11:17;;;;;;;43.70;22.15;;;;;;;-5.62;100.00;99198.53;2025456;29;20234;-71
2020/12/27 03:12:18;;;;;;;46.60;22.95;;;;;;;-5.63;100.00;99207.34;2032978;29;20230;-71
2020/12/27 03:13:19;;;;;;;43.63;22.73;;;;;;;-5.63;100.00;99204.75;2033151;29;20713;-71
2020/12/27 03:14:21;;;;;;;41.10;22.23;;;;;;;-5.64;100.00;99201.34;2032924;29;20247;-71
2020/12/27 03:15:57;;;;;;;47.05;22.10;;;;;;;-5.69;100.00;99193.28;2032405;29;20417;-71
2020/12/27 03:17:10;;;;;;;43.95;23.25;;;;;;;-5.58;100.00;99195.38;2033226;29;20315;-71
2020/12/27 03:18:30;;;;;;;43.95;22.35;;;;;;;-5.61;100.00;99197.56;2032539;29;20227;-71
2020/12/27 03:19:42;;;;;;;44.20;22.98;;;;;;;-5.72;100.00;99178.09;2032485;29;20227;-70
2020/12/27 03:21:02;;;;;;;47.17;23.00;;;;;;;-5.63;100.00;99199.53;2032713;29;20327;-71
2020/12/27 03:22:03;;;;;;;42.38;23.85;;;;;;;-5.68;100.00;99195.69;2033203;29;20714;-70
2020/12/27 03:23:23;;;;;;;41.05;22.92;;;;;;;-5.71;100.00;99195.28;2032654;29;20596;-71
2020/12/27 03:24:28;;;;;;;50.28;23.80;;;;;;;-5.76;100.00;99188.03;2033014;29;20247;-70
2020/12/27 03:25:29;;;;;;;38.70;22.70;;;;;;;-5.89;100.00;99171.56;2025042;29;20251;-70
2020/12/27 03:26:31;;;;;;;47.10;24.87;;;;;;;-5.78;100.00;99191.81;2033048;29;20227;-71
2020/12/27 03:27:32;;;;;;;42.03;23.15;;;;;;;-5.77;100.00;99191.63;2032837;29;20306;-71
2020/12/27 03:28:33;;;;;;;42.17;23.73;;;;;;;-5.81;100.00;99182.63;2032891;29;20227;-70
2020/12/27 03:29:38;;;;;;;45.85;23.52;;;;;;;-5.80;100.00;99181.63;2032739;29;20231;-71
2020/12/27 03:30:40;;;;;;;43.93;24.17;;;;;;;-5.87;100.00;99172.97;2032907;29;20247;-71
2020/12/27 03:31:47;;;;;;;44.42;23.02;;;;;;;-5.78;100.00;99181.44;2032966;29;20303;-71
2020/12/27 03:32:51;;;;;;;36.85;21.80;;;;;;;-5.80;100.00;99181.63;2033047;29;20223;-71
2020/12/27 03:33:52;;;;;;;44.95;23.27;;;;;;;-5.86;100.00;99174.56;2032424;29;20291;-71
2020/12/27 03:34:53;;;;;;;46.70;23.50;;;;;;;-5.87;100.00;99175.56;2032984;29;20235;-71
2020/12/27 03:35:54;;;;;;;47.42;24.33;;;;;;;-5.99;100.00;99158.91;2033581;29;20231;-71
2020/12/27 03:36:57;;;;;;;44.50;24.98;;;;;;;-5.89;100.00;99172.34;2032818;29;21794;-71
2020/12/27 03:38:16;;;;;;;45.05;24.05;;;;;;;-5.92;100.00;99169.34;2032775;29;20223;-71
2020/12/27 03:39:36;;;;;;;37.33;21.92;;;;;;;-5.97;100.00;99162.13;2033290;29;20227;-72
2020/12/27 03:40:57;;;;;;;47.35;24.17;;;;;;;-5.99;100.00;99156.31;2032116;29;20231;-71
2020/12/27 03:42:19;;;;;;;38.58;22.40;;;;;;;-6.04;100.00;99154.25;2027110;29;20315;-71
2020/12/27 03:43:28;;;;;;;54.40;23.73;;;;;;;-6.04;100.00;99158.66;2032385;29;20227;-71
2020/12/27 03:44:30;;;;;;;47.33;23.70;;;;;;;-6.08;100.00;99154.81;2024884;29;20235;-71
2020/12/27 03:46:09;;;;;;;47.00;22.55;;;;;;;-6.10;100.00;99152.41;2044565;29;20257;-72
2020/12/27 03:47:33;;;;;;;45.72;23.17;;;;;;;-6.10;100.00;99149.00;2040002;29;20219;-71
2020/12/27 03:49:06;;;;;;;39.45;22.17;;;;;;;-6.11;100.00;99142.22;2022290;29;20218;-71
2020/12/27 03:50:24;;;;;;;43.67;23.00;;;;;;;-6.15;100.00;99136.59;2039572;29;20231;-71
2020/12/27 03:51:31;;;;;;;40.83;23.10;;;;;;;-6.16;100.00;99134.19;2031105;29;20718;-71
2020/12/27 03:52:32;;;;;;;43.97;24.00;;;;;;;-6.12;100.00;99143.19;2024858;29;20358;-71
2020/12/27 03:53:54;;;;;;;47.70;25.50;;;;;;;-6.18;100.00;99136.16;2032051;29;20239;-72
2020/12/27 03:55:13;;;;;;;40.50;23.27;;;;;;;-6.23;100.00;99133.31;2032565;29;20770;-71
2020/12/27 03:56:37;;;;;;;38.40;22.63;;;;;;;-6.20;100.00;99138.13;2039502;29;20335;-72
2020/12/27 03:58:05;;;;;;;45.03;22.92;;;;;;;-6.24;100.00;99121.34;2032973;29;20227;-71
2020/12/27 03:59:18;;;;;;;45.50;23.75;;;;;;;-6.20;100.00;99132.94;2032455;29;20223;-71
2020/12/27 04:00:29;;;;;;;45.45;23.45;;;;;;;-6.22;100.00;99124.53;2032436;29;20709;-70
2020/12/27 04:01:37;;;;;;;44.33;22.27;;;;;;;-6.26;100.00;99122.31;2032640;29;20279;-72
2020/12/27 04:02:38;;;;;;;36.63;22.15;;;;;;;-6.21;100.00;99129.53;2024813;29;20786;-71
2020/12/27 04:03:39;;;;;;;48.10;24.50;;;;;;;-6.26;100.00;99121.50;2024860;29;20608;-71
2020/12/27 04:04:48;;;;;;;39.85;23.35;;;;;;;-6.20;100.00;99128.56;2032663;29;20789;-70
2020/12/27 04:05:49;;;;;;;45.10;24.77;;;;;;;-6.21;100.00;99120.94;2024505;29;20647;-71
2020/12/27 04:06:54;;;;;;;38.45;23.33;;;;;;;-6.21;100.00;99118.34;2024996;29;20718;-71
2020/12/27 04:08:05;;;;;;;43.83;23.48;;;;;;;-6.22;100.00;99119.34;2026131;29;20299;-71
2020/12/27 04:09:07;;;;;;;45.08;24.30;;;;;;;-6.23;100.00;99107.38;2032517;29;20232;-71
2020/12/27 04:10:09;;;;;;;44.10;24.17;;;;;;;-6.24;100.00;99105.75;2032547;29;20228;-71
2020/12/27 04:11:10;;;;;;;41.42;23.75;;;;;;;-6.26;100.00;99096.34;2032538;29;20701;-70
2020/12/27 04:12:13;;;;;;;47.58;24.80;;;;;;;-6.26;100.00;99100.72;2032621;29;20235;-71
2020/12/27 04:13:15;;;;;;;43.90;24.65;;;;;;;-6.28;100.00;99103.50;2032542;29;20235;-72
2020/12/27 04:14:20;;;;;;;48.63;25.42;;;;;;;-6.30;100.00;99096.91;2025298;29;20310;-72
2020/12/27 04:15:21;;;;;;;39.08;22.92;;;;;;;-6.40;100.00;99081.66;2024776;29;20236;-71
2020/12/27 04:16:39;;;;;;;45.88;24.25;;;;;;;-6.31;100.00;99100.50;2026294;29;20231;-71
2020/12/27 04:17:40;;;;;;;44.05;22.77;;;;;;;-6.33;100.00;99094.69;2024820;29;20706;-71
2020/12/27 04:18:42;;;;;;;46.95;24.27;;;;;;;-6.37;100.00;99085.66;2024772;29;20327;-71
2020/12/27 04:20:07;;;;;;;42.95;23.75;;;;;;;-6.43;100.00;99078.63;2032337;29;20227;-72
2020/12/27 04:21:07;;;;;;;42.25;24.50;;;;;;;-6.44;100.00;99075.22;2024170;29;20245;-71
2020/12/27 04:22:09;;;;;;;51.30;26.00;;;;;;;-6.41;100.00;99077.47;2032528;29;20239;-71
2020/12/27 04:23:18;;;;;;;44.33;25.42;;;;;;;-6.39;100.00;99074.66;2032410;29;20232;-72
2020/12/27 04:24:19;;;;;;;42.87;25.53;;;;;;;-6.42;100.00;99072.47;2024720;29;20224;-71
2020/12/27 04:25:20;;;;;;;42.97;25.40;;;;;;;-6.40;100.00;99068.69;2032548;29;20227;-71
2020/12/27 04:26:22;;;;;;;43.60;25.38;;;;;;;-6.41;100.00;99072.25;2032502;29;20619;-71
2020/12/27 04:27:26;;;;;;;45.28;25.20;;;;;;;-6.41;100.00;99064.47;2024753;29;20244;-71
2020/12/27 04:28:28;;;;;;;43.50;24.03;;;;;;;-6.43;100.00;99061.25;2024555;29;20232;-71
2020/12/27 04:29:29;;;;;;;40.22;25.10;;;;;;;-6.41;100.00;99058.50;2024697;29;20260;-70
2020/12/27 04:30:30;;;;;;;42.80;24.50;;;;;;;-6.42;100.00;99062.88;2024681;29;20239;-72
2020/12/27 04:31:50;;;;;;;43.85;24.48;;;;;;;-6.41;100.00;99059.28;2032001;29;20322;-70
2020/12/27 04:33:04;;;;;;;50.45;25.65;;;;;;;-6.45;100.00;99058.03;2026601;29;20231;-71
2020/12/27 04:34:15;;;;;;;48.00;25.02;;;;;;;-6.43;100.00;99061.25;2025491;29;20224;-71
2020/12/27 04:35:18;;;;;;;51.00;25.83;;;;;;;-6.47;100.00;99049.66;2032492;29;20259;-72
2020/12/27 04:36:21;;;;;;;43.97;24.13;;;;;;;-6.46;100.00;99053.84;2032384;29;20223;-71
2020/12/27 04:37:23;;;;;;;42.90;23.92;;;;;;;-6.56;100.00;99037.78;2024398;29;20231;-73
2020/12/27 04:38:34;;;;;;;46.25;23.65;;;;;;;-6.49;100.00;99048.22;2025839;29;20648;-71
2020/12/27 04:39:35;;;;;;;50.65;24.33;;;;;;;-6.50;100.00;99049.22;2032248;29;20227;-71
2020/12/27 04:40:41;;;;;;;37.63;22.73;;;;;;;-6.53;100.00;99045.19;2032360;29;20220;-71
2020/12/27 04:41:42;;;;;;;50.30;25.05;;;;;;;-6.56;100.00;99032.59;2024868;29;20640;-71
2020/12/27 04:42:52;;;;;;;40.47;24.15;;;;;;;-6.53;100.00;99045.19;2025508;29;20226;-71
2020/12/27 04:44:10;;;;;;;40.83;24.30;;;;;;;-6.56;100.00;99038.59;2025921;29;20279;-72
2020/12/27 04:45:12;;;;;;;46.35;24.40;;;;;;;-6.53;100.00;99040.00;2024897;29;20248;-70
2020/12/27 04:46:39;;;;;;;44.00;22.33;;;;;;;-6.51;100.00;99042.44;2032227;29;20251;-71
2020/12/27 04:47:40;;;;;;;39.63;22.02;;;;;;;-6.51;100.00;99032.06;2031811;29;20227;-71
2020/12/27 04:49:02;;;;;;;40.17;23.77;;;;;;;-6.53;100.00;99032.22;2038316;29;20310;-72
2020/12/27 04:50:24;;;;;;;44.05;24.65;;;;;;;-6.53;100.00;99029.63;2032170;29;20322;-71
2020/12/27 04:51:26;;;;;;;40.90;23.73;;;;;;;-6.57;100.00;99026.63;2032061;29;20255;-71
2020/12/27 04:52:41;;;;;;;39.92;22.27;;;;;;;-6.57;100.00;99029.22;2031787;29;20223;-72
2020/12/27 04:53:55;;;;;;;39.28;23.27;;;;;;;-6.53;100.00;99029.63;2025416;29;20725;-72
2020/12/27 04:55:04;;;;;;;39.22;22.85;;;;;;;-6.53;100.00;99029.63;2032164;29;20655;-71
2020/12/27 04:56:41;;;;;;;40.42;23.13;;;;;;;-6.53;100.00;99024.44;2031305;29;20231;-71
2020/12/27 04:57:51;;;;;;;44.05;23.88;;;;;;;-6.52;100.00;99030.44;2025806;29;20714;-71
2020/12/27 04:58:54;;;;;;;41.58;22.98;;;;;;;-6.52;100.00;99020.84;2024447;29;20255;-71
2020/12/27 05:00:04;;;;;;;39.00;22.88;;;;;;;-6.53;100.00;99034.81;2032180;29;20286;-71
2020/12/27 05:01:25;;;;;;;39.58;22.67;;;;;;;-6.53;100.00;99034.81;2031863;29;20286;-71
2020/12/27 05:02:52;;;;;;;44.63;24.48;;;;;;;-6.51;100.00;99038.03;2031508;29;20286;-71
2020/12/27 05:03:55;;;;;;;45.65;24.23;;;;;;;-6.47;100.00;99036.66;2032054;29;20566;-71
2020/12/27 05:05:01;;;;;;;37.33;23.55;;;;;;;-6.46;100.00;99030.50;2024619;29;20235;-71